sensor_id;sensor_type;location;lat;lon;timestamp;temperature;humidity
20594;DHT22;10455;48.732;10.266;2023-09-19T00:03:32;15.40;99.90
20594;DHT22;10455;48.732;10.266;2023-09-19T00:08:34;15.50;99.90
20594;DHT22;10455;48.732;10.266;2023-09-19T00:13:37;15.50;99.90
20594;DHT22;10455;48.732;10.266;2023-09-19T00:18:39;15.40;99.90
20594;DHT22;10455;48.732;10.266;2023-09-19T00:23:41;15.50;99.90
20594;DHT22;10455;48.732;10.266;2023-09-19T00:28:44;15.70;99.90
20594;DHT22;10455;48.732;10.266;2023-09-19T00:33:46;15.80;99.90
20594;DHT22;10455;48.732;10.266;2023-09-19T00:38:49;15.80;99.90
20594;DHT22;10455;48.732;10.266;2023-09-19T00:43:53;15.70;99.90
20594;DHT22;10455;48.732;10.266;2023-09-19T00:48:54;15.60;99.90
20594;DHT22;10455;48.732;10.266;2023-09-19T00:53:58;15.60;99.90
20594;DHT22;10455;48.732;10.266;2023-09-19T00:59:02;15.70;99.90
20594;DHT22;10455;48.732;10.266;2023-09-19T01:04:04;15.50;99.90
20594;DHT22;10455;48.732;10.266;2023-09-19T01:09:06;15.20;99.90
20594;DHT22;10455;48.732;10.266;2023-09-19T01:14:23;15.20;99.90
20594;DHT22;10455;48.732;10.266;2023-09-19T01:25:52;15.30;99.90
20594;DHT22;10455;48.732;10.266;2023-09-19T01:31:00;15.30;99.90
20594;DHT22;10455;48.732;10.266;2023-09-19T01:36:04;15.20;99.90
20594;DHT22;10455;48.732;10.266;2023-09-19T01:41:11;15.20;99.90
20594;DHT22;10455;48.732;10.266;2023-09-19T01:46:19;15.10;99.90
20594;DHT22;10455;48.732;10.266;2023-09-19T01:51:32;14.90;99.90
20594;DHT22;10455;48.732;10.266;2023-09-19T01:56:37;14.70;99.90
20594;DHT22;10455;48.732;10.266;2023-09-19T02:01:44;14.60;99.90
20594;DHT22;10455;48.732;10.266;2023-09-19T02:06:47;14.50;99.90
20594;DHT22;10455;48.732;10.266;2023-09-19T02:11:49;14.60;99.90
20594;DHT22;10455;48.732;10.266;2023-09-19T02:16:52;14.70;99.90
20594;DHT22;10455;48.732;10.266;2023-09-19T02:21:54;14.90;99.90
20594;DHT22;10455;48.732;10.266;2023-09-19T02:26:56;15.00;99.90
20594;DHT22;10455;48.732;10.266;2023-09-19T02:32:01;15.10;99.90
20594;DHT22;10455;48.732;10.266;2023-09-19T02:37:03;15.20;99.90
20594;DHT22;10455;48.732;10.266;2023-09-19T02:42:06;15.20;99.90
20594;DHT22;10455;48.732;10.266;2023-09-19T02:47:10;15.20;99.90
20594;DHT22;10455;48.732;10.266;2023-09-19T02:52:12;15.10;99.90
20594;DHT22;10455;48.732;10.266;2023-09-19T02:57:15;15.00;99.90
20594;DHT22;10455;48.732;10.266;2023-09-19T03:02:19;15.10;99.90
20594;DHT22;10455;48.732;10.266;2023-09-19T03:07:24;15.10;99.90
20594;DHT22;10455;48.732;10.266;2023-09-19T03:12:27;15.20;99.90
20594;DHT22;10455;48.732;10.266;2023-09-19T03:17:30;15.30;99.90
20594;DHT22;10455;48.732;10.266;2023-09-19T03:22:33;15.30;99.90
20594;DHT22;10455;48.732;10.266;2023-09-19T03:27:35;15.10;99.90
20594;DHT22;10455;48.732;10.266;2023-09-19T03:32:44;14.80;99.90
20594;DHT22;10455;48.732;10.266;2023-09-19T03:37:46;14.70;99.90
20594;DHT22;10455;48.732;10.266;2023-09-19T03:42:48;14.70;99.90
20594;DHT22;10455;48.732;10.266;2023-09-19T03:47:51;14.60;99.90
20594;DHT22;10455;48.732;10.266;2023-09-19T03:52:56;14.30;99.90
20594;DHT22;10455;48.732;10.266;2023-09-19T03:57:58;14.20;99.90
20594;DHT22;10455;48.732;10.266;2023-09-19T04:03:01;14.20;99.90
20594;DHT22;10455;48.732;10.266;2023-09-19T04:08:06;14.00;99.90
20594;DHT22;10455;48.732;10.266;2023-09-19T04:13:09;13.90;99.90
20594;DHT22;10455;48.732;10.266;2023-09-19T04:18:12;13.90;99.90
20594;DHT22;10455;48.732;10.266;2023-09-19T04:23:14;13.80;99.90
20594;DHT22;10455;48.732;10.266;2023-09-19T04:28:16;14.00;99.90
20594;DHT22;10455;48.732;10.266;2023-09-19T04:33:19;14.20;99.90
20594;DHT22;10455;48.732;10.266;2023-09-19T04:38:21;14.30;99.90
20594;DHT22;10455;48.732;10.266;2023-09-19T04:43:24;14.40;99.90
20594;DHT22;10455;48.732;10.266;2023-09-19T04:48:27;14.60;99.90
20594;DHT22;10455;48.732;10.266;2023-09-19T04:53:29;14.70;99.90
20594;DHT22;10455;48.732;10.266;2023-09-19T04:58:31;14.70;99.90
20594;DHT22;10455;48.732;10.266;2023-09-19T05:03:35;14.40;99.90
20594;DHT22;10455;48.732;10.266;2023-09-19T05:08:37;14.40;99.90
20594;DHT22;10455;48.732;10.266;2023-09-19T05:13:39;14.40;99.90
20594;DHT22;10455;48.732;10.266;2023-09-19T05:18:42;14.50;99.90
20594;DHT22;10455;48.732;10.266;2023-09-19T05:23:44;14.60;99.90
20594;DHT22;10455;48.732;10.266;2023-09-19T05:28:46;14.60;99.90
20594;DHT22;10455;48.732;10.266;2023-09-19T05:33:49;14.60;99.90
20594;DHT22;10455;48.732;10.266;2023-09-19T05:38:51;14.60;99.90
20594;DHT22;10455;48.732;10.266;2023-09-19T05:43:54;14.70;99.90
20594;DHT22;10455;48.732;10.266;2023-09-19T05:48:57;14.80;99.90
20594;DHT22;10455;48.732;10.266;2023-09-19T05:53:59;14.70;99.90
20594;DHT22;10455;48.732;10.266;2023-09-19T05:59:01;16.20;99.90
20594;DHT22;10455;48.732;10.266;2023-09-19T06:04:05;18.80;99.90
20594;DHT22;10455;48.732;10.266;2023-09-19T06:09:07;17.40;99.90
20594;DHT22;10455;48.732;10.266;2023-09-19T06:14:10;19.80;99.90
20594;DHT22;10455;48.732;10.266;2023-09-19T06:19:13;18.50;99.90
20594;DHT22;10455;48.732;10.266;2023-09-19T06:24:15;19.10;99.90
20594;DHT22;10455;48.732;10.266;2023-09-19T06:29:17;21.30;99.90
20594;DHT22;10455;48.732;10.266;2023-09-19T06:34:22;23.00;99.90
20594;DHT22;10455;48.732;10.266;2023-09-19T06:39:26;21.20;99.90
20594;DHT22;10455;48.732;10.266;2023-09-19T06:44:28;19.40;99.90
20594;DHT22;10455;48.732;10.266;2023-09-19T06:49:33;18.70;99.90
20594;DHT22;10455;48.732;10.266;2023-09-19T06:54:35;17.90;99.90
20594;DHT22;10455;48.732;10.266;2023-09-19T06:59:38;17.50;99.90
20594;DHT22;10455;48.732;10.266;2023-09-19T07:04:42;17.20;99.90
20594;DHT22;10455;48.732;10.266;2023-09-19T07:09:44;17.20;99.90
20594;DHT22;10455;48.732;10.266;2023-09-19T07:14:46;17.20;99.90
20594;DHT22;10455;48.732;10.266;2023-09-19T07:19:49;16.90;99.90
20594;DHT22;10455;48.732;10.266;2023-09-19T07:24:51;17.00;99.90
20594;DHT22;10455;48.732;10.266;2023-09-19T07:29:53;17.40;99.90
20594;DHT22;10455;48.732;10.266;2023-09-19T07:34:56;17.80;99.90
20594;DHT22;10455;48.732;10.266;2023-09-19T07:39:58;17.60;99.90
20594;DHT22;10455;48.732;10.266;2023-09-19T07:44:59;16.10;99.90
20594;DHT22;10455;48.732;10.266;2023-09-19T07:50:03;15.60;99.90
20594;DHT22;10455;48.732;10.266;2023-09-19T07:55:08;15.60;99.90
20594;DHT22;10455;48.732;10.266;2023-09-19T08:00:12;15.20;99.90
20594;DHT22;10455;48.732;10.266;2023-09-19T08:05:16;15.20;99.90
20594;DHT22;10455;48.732;10.266;2023-09-19T08:10:18;14.90;99.90
20594;DHT22;10455;48.732;10.266;2023-09-19T08:15:21;15.30;99.90
20594;DHT22;10455;48.732;10.266;2023-09-19T08:20:25;16.00;99.90
20594;DHT22;10455;48.732;10.266;2023-09-19T08:25:27;17.30;99.90
20594;DHT22;10455;48.732;10.266;2023-09-19T08:30:29;19.40;99.90
20594;DHT22;10455;48.732;10.266;2023-09-19T08:35:32;20.90;99.90
20594;DHT22;10455;48.732;10.266;2023-09-19T08:40:37;23.60;99.90
20594;DHT22;10455;48.732;10.266;2023-09-19T08:45:40;21.20;99.90
20594;DHT22;10455;48.732;10.266;2023-09-19T08:50:49;20.80;99.90
20594;DHT22;10455;48.732;10.266;2023-09-19T08:55:53;20.10;99.90
20594;DHT22;10455;48.732;10.266;2023-09-19T09:00:58;19.10;99.90
20594;DHT22;10455;48.732;10.266;2023-09-19T09:06:03;19.70;99.90
20594;DHT22;10455;48.732;10.266;2023-09-19T09:11:05;21.40;99.90
20594;DHT22;10455;48.732;10.266;2023-09-19T09:16:08;23.40;99.90
20594;DHT22;10455;48.732;10.266;2023-09-19T09:21:12;24.20;99.90
20594;DHT22;10455;48.732;10.266;2023-09-19T09:26:15;23.30;99.90
20594;DHT22;10455;48.732;10.266;2023-09-19T09:31:23;22.40;99.90
20594;DHT22;10455;48.732;10.266;2023-09-19T09:36:36;22.80;99.90
20594;DHT22;10455;48.732;10.266;2023-09-19T09:41:38;24.20;99.90
20594;DHT22;10455;48.732;10.266;2023-09-19T09:46:42;24.60;99.90
20594;DHT22;10455;48.732;10.266;2023-09-19T09:52:22;22.70;99.90
20594;DHT22;10455;48.732;10.266;2023-09-19T09:57:24;21.60;99.90
20594;DHT22;10455;48.732;10.266;2023-09-19T10:02:27;21.40;99.90
20594;DHT22;10455;48.732;10.266;2023-09-19T10:07:34;22.70;99.90
20594;DHT22;10455;48.732;10.266;2023-09-19T10:12:43;23.80;99.90
20594;DHT22;10455;48.732;10.266;2023-09-19T10:17:46;24.60;99.90
20594;DHT22;10455;48.732;10.266;2023-09-19T10:22:50;23.90;99.90
20594;DHT22;10455;48.732;10.266;2023-09-19T10:27:59;24.70;99.90
20594;DHT22;10455;48.732;10.266;2023-09-19T10:33:04;25.00;99.90
20594;DHT22;10455;48.732;10.266;2023-09-19T10:38:10;23.40;99.90
20594;DHT22;10455;48.732;10.266;2023-09-19T10:43:15;23.10;99.90
20594;DHT22;10455;48.732;10.266;2023-09-19T10:48:20;24.20;99.90
20594;DHT22;10455;48.732;10.266;2023-09-19T10:53:29;25.70;99.90
20594;DHT22;10455;48.732;10.266;2023-09-19T10:58:32;25.90;99.90
20594;DHT22;10455;48.732;10.266;2023-09-19T11:03:40;25.20;99.90
20594;DHT22;10455;48.732;10.266;2023-09-19T11:08:53;26.20;99.90
20594;DHT22;10455;48.732;10.266;2023-09-19T11:14:13;26.80;99.90
20594;DHT22;10455;48.732;10.266;2023-09-19T11:19:15;28.10;99.90
20594;DHT22;10455;48.732;10.266;2023-09-19T11:24:31;25.70;99.90
20594;DHT22;10455;48.732;10.266;2023-09-19T11:29:36;25.40;99.90
20594;DHT22;10455;48.732;10.266;2023-09-19T11:34:44;25.50;99.90
20594;DHT22;10455;48.732;10.266;2023-09-19T11:40:05;24.60;99.90
20594;DHT22;10455;48.732;10.266;2023-09-19T11:46:03;25.70;99.90
20594;DHT22;10455;48.732;10.266;2023-09-19T11:51:16;25.90;99.90
20594;DHT22;10455;48.732;10.266;2023-09-19T11:56:25;26.20;99.90
20594;DHT22;10455;48.732;10.266;2023-09-19T12:01:30;26.90;99.90
20594;DHT22;10455;48.732;10.266;2023-09-19T12:06:33;27.00;99.90
20594;DHT22;10455;48.732;10.266;2023-09-19T12:11:42;25.60;99.90
20594;DHT22;10455;48.732;10.266;2023-09-19T12:16:51;24.80;99.90
20594;DHT22;10455;48.732;10.266;2023-09-19T12:21:59;25.20;99.90
20594;DHT22;10455;48.732;10.266;2023-09-19T12:27:07;25.00;99.90
20594;DHT22;10455;48.732;10.266;2023-09-19T12:32:10;25.40;99.90
20594;DHT22;10455;48.732;10.266;2023-09-19T12:37:13;26.20;99.90
20594;DHT22;10455;48.732;10.266;2023-09-19T12:42:23;24.90;99.90
20594;DHT22;10455;48.732;10.266;2023-09-19T12:47:29;23.50;99.90
20594;DHT22;10455;48.732;10.266;2023-09-19T12:52:36;23.60;99.90
20594;DHT22;10455;48.732;10.266;2023-09-19T12:57:40;24.70;99.90
20594;DHT22;10455;48.732;10.266;2023-09-19T13:03:09;25.40;99.90
20594;DHT22;10455;48.732;10.266;2023-09-19T13:08:20;24.90;99.90
20594;DHT22;10455;48.732;10.266;2023-09-19T13:13:24;25.10;99.90
20594;DHT22;10455;48.732;10.266;2023-09-19T13:18:29;25.80;99.60
20594;DHT22;10455;48.732;10.266;2023-09-19T13:23:32;26.10;98.30
20594;DHT22;10455;48.732;10.266;2023-09-19T13:28:35;26.40;99.90
20594;DHT22;10455;48.732;10.266;2023-09-19T13:33:42;27.80;98.60
20594;DHT22;10455;48.732;10.266;2023-09-19T13:38:45;28.60;96.90
20594;DHT22;10455;48.732;10.266;2023-09-19T13:43:51;29.50;95.30
20594;DHT22;10455;48.732;10.266;2023-09-19T13:48:53;29.40;93.90
20594;DHT22;10455;48.732;10.266;2023-09-19T13:53:56;29.90;94.40
20594;DHT22;10455;48.732;10.266;2023-09-19T13:58:59;29.50;93.90
20594;DHT22;10455;48.732;10.266;2023-09-19T14:04:01;28.50;93.20
20594;DHT22;10455;48.732;10.266;2023-09-19T14:09:03;27.10;94.80
20594;DHT22;10455;48.732;10.266;2023-09-19T14:14:07;27.80;93.80
20594;DHT22;10455;48.732;10.266;2023-09-19T14:19:08;27.00;95.80
20594;DHT22;10455;48.732;10.266;2023-09-19T14:24:10;26.50;96.20
20594;DHT22;10455;48.732;10.266;2023-09-19T14:29:14;26.80;94.40
20594;DHT22;10455;48.732;10.266;2023-09-19T14:34:16;28.10;94.90
20594;DHT22;10455;48.732;10.266;2023-09-19T14:39:20;28.60;94.70
20594;DHT22;10455;48.732;10.266;2023-09-19T14:44:23;27.30;93.90
20594;DHT22;10455;48.732;10.266;2023-09-19T14:49:25;27.30;94.20
20594;DHT22;10455;48.732;10.266;2023-09-19T14:54:27;26.40;95.10
20594;DHT22;10455;48.732;10.266;2023-09-19T14:59:31;26.80;94.70
20594;DHT22;10455;48.732;10.266;2023-09-19T15:04:34;26.30;95.40
20594;DHT22;10455;48.732;10.266;2023-09-19T15:09:35;25.80;95.10
20594;DHT22;10455;48.732;10.266;2023-09-19T15:14:39;26.00;96.60
20594;DHT22;10455;48.732;10.266;2023-09-19T15:19:41;25.80;96.40
20594;DHT22;10455;48.732;10.266;2023-09-19T15:24:43;24.60;97.60
20594;DHT22;10455;48.732;10.266;2023-09-19T15:29:46;23.70;99.00
20594;DHT22;10455;48.732;10.266;2023-09-19T15:34:48;23.00;99.60
20594;DHT22;10455;48.732;10.266;2023-09-19T15:39:50;22.70;99.90
20594;DHT22;10455;48.732;10.266;2023-09-19T15:44:53;22.60;99.90
20594;DHT22;10455;48.732;10.266;2023-09-19T15:49:56;22.70;99.90
20594;DHT22;10455;48.732;10.266;2023-09-19T15:54:58;22.70;99.90
20594;DHT22;10455;48.732;10.266;2023-09-19T16:00:01;22.10;99.90
20594;DHT22;10455;48.732;10.266;2023-09-19T16:05:05;22.20;99.90
20594;DHT22;10455;48.732;10.266;2023-09-19T16:10:08;22.30;99.90
20594;DHT22;10455;48.732;10.266;2023-09-19T16:15:11;22.10;99.90
20594;DHT22;10455;48.732;10.266;2023-09-19T16:20:15;21.90;99.90
20594;DHT22;10455;48.732;10.266;2023-09-19T16:25:17;21.30;99.90
20594;DHT22;10455;48.732;10.266;2023-09-19T16:30:20;21.10;99.90
20594;DHT22;10455;48.732;10.266;2023-09-19T16:35:22;20.70;99.90
20594;DHT22;10455;48.732;10.266;2023-09-19T16:40:24;20.40;99.90
20594;DHT22;10455;48.732;10.266;2023-09-19T16:45:27;19.90;99.90
20594;DHT22;10455;48.732;10.266;2023-09-19T16:50:31;19.60;99.90
20594;DHT22;10455;48.732;10.266;2023-09-19T16:55:34;19.20;99.90
20594;DHT22;10455;48.732;10.266;2023-09-19T17:00:38;18.70;99.90
20594;DHT22;10455;48.732;10.266;2023-09-19T17:05:40;18.50;99.90
20594;DHT22;10455;48.732;10.266;2023-09-19T17:10:42;18.10;99.90
20594;DHT22;10455;48.732;10.266;2023-09-19T17:15:45;17.70;99.90
20594;DHT22;10455;48.732;10.266;2023-09-19T17:20:47;17.30;99.90
20594;DHT22;10455;48.732;10.266;2023-09-19T17:25:49;16.90;99.90
20594;DHT22;10455;48.732;10.266;2023-09-19T17:30:52;16.60;99.90
20594;DHT22;10455;48.732;10.266;2023-09-19T17:36:08;16.30;99.90
20594;DHT22;10455;48.732;10.266;2023-09-19T17:41:11;15.90;99.90
20594;DHT22;10455;48.732;10.266;2023-09-19T17:46:17;15.60;99.90
20594;DHT22;10455;48.732;10.266;2023-09-19T17:51:20;15.40;99.90
20594;DHT22;10455;48.732;10.266;2023-09-19T17:56:22;15.00;99.90
20594;DHT22;10455;48.732;10.266;2023-09-19T18:01:26;14.70;99.90
20594;DHT22;10455;48.732;10.266;2023-09-19T18:06:29;14.50;99.90
20594;DHT22;10455;48.732;10.266;2023-09-19T18:11:32;14.30;99.90
20594;DHT22;10455;48.732;10.266;2023-09-19T18:16:35;14.30;99.90
20594;DHT22;10455;48.732;10.266;2023-09-19T18:21:38;14.20;99.90
20594;DHT22;10455;48.732;10.266;2023-09-19T18:26:41;14.00;99.90
20594;DHT22;10455;48.732;10.266;2023-09-19T18:31:44;13.80;99.90
20594;DHT22;10455;48.732;10.266;2023-09-19T18:36:46;13.70;99.90
20594;DHT22;10455;48.732;10.266;2023-09-19T18:41:50;13.70;99.90
20594;DHT22;10455;48.732;10.266;2023-09-19T18:46:53;13.70;99.90
20594;DHT22;10455;48.732;10.266;2023-09-19T18:51:56;13.60;99.90
20594;DHT22;10455;48.732;10.266;2023-09-19T18:56:57;13.50;99.90
20594;DHT22;10455;48.732;10.266;2023-09-19T19:02:01;13.30;99.90
20594;DHT22;10455;48.732;10.266;2023-09-19T19:07:04;13.10;99.90
20594;DHT22;10455;48.732;10.266;2023-09-19T19:12:06;13.00;99.90
20594;DHT22;10455;48.732;10.266;2023-09-19T19:17:10;12.90;99.90
20594;DHT22;10455;48.732;10.266;2023-09-19T19:22:13;12.90;99.90
20594;DHT22;10455;48.732;10.266;2023-09-19T19:27:15;12.80;99.90
20594;DHT22;10455;48.732;10.266;2023-09-19T19:32:18;12.70;99.90
20594;DHT22;10455;48.732;10.266;2023-09-19T19:37:25;12.70;99.90
20594;DHT22;10455;48.732;10.266;2023-09-19T19:42:27;12.60;99.90
20594;DHT22;10455;48.732;10.266;2023-09-19T19:47:31;12.50;99.90
20594;DHT22;10455;48.732;10.266;2023-09-19T19:52:33;12.50;99.90
20594;DHT22;10455;48.732;10.266;2023-09-19T19:57:35;12.40;99.90
20594;DHT22;10455;48.732;10.266;2023-09-19T20:02:39;12.40;99.90
20594;DHT22;10455;48.732;10.266;2023-09-19T20:07:40;12.40;99.90
20594;DHT22;10455;48.732;10.266;2023-09-19T20:12:42;12.60;99.90
20594;DHT22;10455;48.732;10.266;2023-09-19T20:17:46;12.50;99.90
20594;DHT22;10455;48.732;10.266;2023-09-19T20:22:50;12.30;99.90
20594;DHT22;10455;48.732;10.266;2023-09-19T20:27:52;12.30;99.90
20594;DHT22;10455;48.732;10.266;2023-09-19T20:32:55;12.10;99.90
20594;DHT22;10455;48.732;10.266;2023-09-19T20:37:57;12.00;99.90
20594;DHT22;10455;48.732;10.266;2023-09-19T20:43:03;11.90;99.90
20594;DHT22;10455;48.732;10.266;2023-09-19T20:48:07;11.80;99.90
20594;DHT22;10455;48.732;10.266;2023-09-19T20:53:10;11.70;99.90
20594;DHT22;10455;48.732;10.266;2023-09-19T20:58:12;11.60;99.90
20594;DHT22;10455;48.732;10.266;2023-09-19T21:03:15;11.50;99.90
20594;DHT22;10455;48.732;10.266;2023-09-19T21:08:17;11.50;99.90
20594;DHT22;10455;48.732;10.266;2023-09-19T21:13:19;11.60;99.90
20594;DHT22;10455;48.732;10.266;2023-09-19T21:18:22;11.80;99.90
20594;DHT22;10455;48.732;10.266;2023-09-19T21:23:25;12.00;99.90
20594;DHT22;10455;48.732;10.266;2023-09-19T21:28:27;12.20;99.90
20594;DHT22;10455;48.732;10.266;2023-09-19T21:33:31;12.20;99.90
20594;DHT22;10455;48.732;10.266;2023-09-19T21:38:33;12.20;99.90
20594;DHT22;10455;48.732;10.266;2023-09-19T21:43:35;12.10;99.90
20594;DHT22;10455;48.732;10.266;2023-09-19T21:48:38;12.10;99.90
20594;DHT22;10455;48.732;10.266;2023-09-19T21:53:40;12.30;99.90
20594;DHT22;10455;48.732;10.266;2023-09-19T21:58:42;12.30;99.90
20594;DHT22;10455;48.732;10.266;2023-09-19T22:03:46;12.40;99.90
20594;DHT22;10455;48.732;10.266;2023-09-19T22:08:49;12.40;99.90
20594;DHT22;10455;48.732;10.266;2023-09-19T22:14:19;12.30;99.90
20594;DHT22;10455;48.732;10.266;2023-09-19T22:19:22;12.00;99.90
20594;DHT22;10455;48.732;10.266;2023-09-19T22:24:25;11.90;99.90
20594;DHT22;10455;48.732;10.266;2023-09-19T22:29:28;11.70;99.90
20594;DHT22;10455;48.732;10.266;2023-09-19T22:34:31;11.50;99.90
20594;DHT22;10455;48.732;10.266;2023-09-19T22:39:33;11.40;99.90
20594;DHT22;10455;48.732;10.266;2023-09-19T22:44:36;11.30;99.90
20594;DHT22;10455;48.732;10.266;2023-09-19T22:49:39;11.30;99.90
20594;DHT22;10455;48.732;10.266;2023-09-19T22:54:42;11.20;99.90
20594;DHT22;10455;48.732;10.266;2023-09-19T22:59:44;11.00;99.90
20594;DHT22;10455;48.732;10.266;2023-09-19T23:04:47;11.00;99.90
20594;DHT22;10455;48.732;10.266;2023-09-19T23:09:49;10.90;99.90
20594;DHT22;10455;48.732;10.266;2023-09-19T23:14:51;10.80;99.90
20594;DHT22;10455;48.732;10.266;2023-09-19T23:19:56;10.80;99.90
20594;DHT22;10455;48.732;10.266;2023-09-19T23:24:59;10.80;99.90
20594;DHT22;10455;48.732;10.266;2023-09-19T23:30:13;10.70;99.90
20594;DHT22;10455;48.732;10.266;2023-09-19T23:35:24;10.70;99.90
20594;DHT22;10455;48.732;10.266;2023-09-19T23:40:27;10.70;99.90
20594;DHT22;10455;48.732;10.266;2023-09-19T23:45:31;10.70;99.90
20594;DHT22;10455;48.732;10.266;2023-09-19T23:50:39;10.60;99.90
20594;DHT22;10455;48.732;10.266;2023-09-19T23:55:43;10.70;99.90
